Time;durP1;ratioP1;P1;durP2;ratioP2;P2;SDS_P1;SDS_P2;PMS_P1;PMS_P2;Temp;Humidity;BMP_temperature;BMP_pressure;BME280_temperature;BME280_humidity;BME280_pressure;Samples;Min_cycle;Max_cycle;Signal;HPM_P1;HPM_P2
2021/01/12 00:00:22;;;;;;;10.07;7.40;;;7.40;99.90;;;;;;6067693;23;20414;-80
2021/01/12 00:02:56;;;;;;;6.90;6.20;;;7.10;99.90;;;;;;6042010;23;20546;-82
2021/01/12 00:05:54;;;;;;;9.40;6.60;;;7.20;99.90;;;;;;6043065;23;20775;-80
2021/01/12 00:08:26;;;;;;;9.33;6.73;;;7.50;99.90;;;;;;6080439;23;20405;-80
2021/01/12 00:10:55;;;;;;;8.20;5.70;;;7.50;99.90;;;;;;6060364;23;20465;-78
2021/01/12 00:13:34;;;;;;;5.50;5.00;;;7.30;99.90;;;;;;6063338;23;20440;-81
2021/01/12 00:16:13;;;;;;;7.50;6.07;;;7.40;99.90;;;;;;6084916;23;20417;-80
2021/01/12 00:18:40;;;;;;;6.27;5.23;;;7.60;99.90;;;;;;6042807;23;20940;-79
2021/01/12 00:21:25;;;;;;;6.03;5.03;;;7.50;99.90;;;;;;6080565;23;20514;-81
2021/01/12 00:24:06;;;;;;;5.43;4.90;;;7.60;99.90;;;;;;6120013;23;20424;-80
2021/01/12 00:26:42;;;;;;;8.10;5.37;;;7.60;99.90;;;;;;6126134;23;20439;-81
2021/01/12 00:29:41;;;;;;;7.10;5.77;;;7.60;99.90;;;;;;6121671;23;20416;-81
2021/01/12 00:32:39;;;;;;;7.93;6.10;;;7.30;99.90;;;;;;6120419;23;20507;-82
2021/01/12 00:35:30;;;;;;;6.80;5.30;;;7.50;99.90;;;;;;6123603;23;20438;-80
2021/01/12 00:38:29;;;;;;;6.70;5.63;;;7.60;99.90;;;;;;6121885;23;20447;-81
2021/01/12 00:42:04;;;;;;;6.10;5.50;;;7.40;99.90;;;;;;6119312;23;20419;-81
2021/01/12 00:45:06;;;;;;;;;;;;;;;;;;;;;
2021/01/12 00:47:36;;;;;;;4.33;3.93;;;7.10;99.90;;;;;;6150471;23;20406;-81
2021/01/12 00:50:31;;;;;;;6.50;4.90;;;7.30;99.90;;;;;;6101800;23;20725;-81
2021/01/12 00:53:23;;;;;;;5.70;4.70;;;7.10;99.90;;;;;;6153202;23;20461;-78
2021/01/12 00:55:59;;;;;;;4.53;4.10;;;7.30;99.90;;;;;;6152817;23;20396;-81
2021/01/12 00:58:37;;;;;;;4.13;3.67;;;7.50;99.90;;;;;;6153172;23;20395;-79
2021/01/12 01:01:26;;;;;;;4.03;3.73;;;7.40;99.90;;;;;;6146481;23;20446;-80
2021/01/12 01:04:16;;;;;;;5.60;3.83;;;7.70;99.90;;;;;;6175639;23;20530;-81
2021/01/12 01:06:56;;;;;;;4.93;3.70;;;7.70;99.90;;;;;;6152121;23;20400;-82
2021/01/12 01:09:52;;;;;;;4.37;3.60;;;7.70;99.90;;;;;;6153081;23;20406;-81
2021/01/12 01:12:38;;;;;;;3.90;3.50;;;7.40;99.90;;;;;;6151549;23;20891;-80
2021/01/12 01:15:23;;;;;;;5.50;3.90;;;7.60;99.90;;;;;;6152105;23;20453;-81
2021/01/12 01:17:58;;;;;;;3.80;3.50;;;7.30;99.90;;;;;;6152078;23;20918;-79
2021/01/12 01:21:28;;;;;;;3.20;2.90;;;7.30;99.90;;;;;;6152792;23;20493;-80
2021/01/12 01:24:20;;;;;;;3.87;3.57;;;7.30;99.90;;;;;;6154059;23;20475;-80
2021/01/12 01:27:06;;;;;;;4.50;3.27;;;7.50;99.90;;;;;;6122209;23;20466;-80
2021/01/12 01:30:14;;;;;;;4.60;3.60;;;7.70;99.90;;;;;;6106284;23;20403;-77
2021/01/12 01:32:58;;;;;;;4.70;3.50;;;7.80;99.90;;;;;;6126915;23;20538;-81
2021/01/12 01:35:42;;;;;;;5.00;3.50;;;7.70;99.90;;;;;;6100989;23;20419;-80
2021/01/12 01:39:27;;;;;;;5.00;3.60;;;7.50;99.90;;;;;;6103283;23;20609;-81
2021/01/12 01:42:21;;;;;;;4.00;3.27;;;7.30;99.90;;;;;;6096498;23;20990;-81
2021/01/12 01:44:51;;;;;;;3.67;3.30;;;7.40;99.90;;;;;;6125353;23;20507;-81
2021/01/12 01:47:31;;;;;;;3.70;3.40;;;7.60;99.90;;;;;;6097969;23;20457;-79
2021/01/12 01:50:16;;;;;;;3.27;2.93;;;7.50;99.90;;;;;;6108748;23;20475;-79
2021/01/12 01:52:58;;;;;;;3.80;3.50;;;7.50;99.90;;;;;;6104292;23;20428;-79
2021/01/12 01:55:31;;;;;;;3.97;3.60;;;7.70;99.90;;;;;;6108115;23;20924;-80
2021/01/12 01:58:23;;;;;;;7.03;3.13;;;7.90;99.90;;;;;;6161024;23;20399;-80
2021/01/12 02:01:44;;;;;;;5.63;4.33;;;7.70;99.90;;;;;;6120417;23;20477;-80
2021/01/12 02:08:08;;;;;;;4.67;3.77;;;7.70;99.90;;;;;;6035261;23;20862;-79
2021/01/12 02:10:46;;;;;;;5.00;4.03;;;7.60;99.90;;;;;;6035443;23;20921;-79
2021/01/12 02:13:36;;;;;;;4.10;3.53;;;7.90;99.90;;;;;;6025900;23;20482;-82
2021/01/12 02:16:09;;;;;;;4.60;3.47;;;8.00;99.90;;;;;;6037190;23;20414;-81
2021/01/12 02:19:09;;;;;;;3.37;3.07;;;8.00;99.90;;;;;;5997977;23;20489;-78
2021/01/12 02:21:46;;;;;;;3.73;3.43;;;7.80;99.90;;;;;;6056441;23;20449;-80
2021/01/12 02:24:21;;;;;;;4.90;4.07;;;7.80;99.90;;;;;;6055283;23;20800;-81
2021/01/12 02:26:50;;;;;;;4.70;4.00;;;7.80;99.90;;;;;;6042582;23;20786;-81
2021/01/12 02:30:00;;;;;;;4.13;3.73;;;7.80;99.90;;;;;;6015656;23;20429;-80
2021/01/12 02:32:47;;;;;;;4.40;3.30;;;7.90;99.90;;;;;;6055282;23;20442;-79
2021/01/12 02:35:29;;;;;;;3.50;2.93;;;7.80;99.90;;;;;;6055666;23;20431;-80
2021/01/12 02:38:04;;;;;;;4.40;3.40;;;7.80;99.90;;;;;;6056974;23;20436;-80
2021/01/12 02:40:39;;;;;;;4.90;3.30;;;7.80;99.90;;;;;;6048683;23;20407;-82
2021/01/12 02:43:15;;;;;;;3.07;2.77;;;7.60;99.90;;;;;;6035773;23;20553;-82
2021/01/12 02:45:45;;;;;;;2.77;2.57;;;7.70;99.90;;;;;;6131666;23;20837;-81
2021/01/12 02:48:22;;;;;;;;;;;;;;;;;;;;;
2021/01/12 02:50:55;;;;;;;2.77;2.57;;;7.90;99.90;;;;;;6153856;23;20434;-81
2021/01/12 02:53:59;;;;;;;3.07;2.77;;;7.70;99.90;;;;;;6069659;23;20418;-81
2021/01/12 02:56:36;;;;;;;2.70;2.30;;;7.80;99.90;;;;;;6039686;23;20421;-79
2021/01/12 02:59:15;;;;;;;2.43;2.10;;;7.60;99.90;;;;;;6062092;23;20513;-81
2021/01/12 03:02:28;;;;;;;2.80;2.60;;;7.80;99.90;;;;;;6043274;23;20441;-78
2021/01/12 03:05:02;;;;;;;3.83;2.47;;;7.90;99.90;;;;;;6038694;23;20520;-80
2021/01/12 03:08:05;;;;;;;2.93;2.27;;;7.90;99.90;;;;;;6060241;23;20438;-79
2021/01/12 03:10:40;;;;;;;2.33;2.00;;;7.70;99.90;;;;;;6063251;23;20427;-78
2021/01/12 03:13:18;;;;;;;1.60;1.50;;;7.80;99.90;;;;;;6062112;23;20992;-79
2021/01/12 03:15:59;;;;;;;2.33;2.10;;;7.90;99.90;;;;;;6041172;23;20421;-81
2021/01/12 03:18:31;;;;;;;2.13;2.00;;;7.90;99.90;;;;;;6042762;23;20862;-78
2021/01/12 03:21:00;;;;;;;1.57;1.47;;;7.90;99.90;;;;;;6075827;23;20406;-79
2021/01/12 03:23:29;;;;;;;1.93;1.60;;;7.80;99.90;;;;;;6043317;23;20450;-81
2021/01/12 03:25:59;;;;;;;2.50;1.87;;;7.80;99.90;;;;;;6063768;23;20417;-80
2021/01/12 03:28:51;;;;;;;2.37;2.17;;;7.90;99.90;;;;;;6079778;23;20781;-80
2021/01/12 03:31:38;;;;;;;1.47;1.37;;;7.70;99.90;;;;;;6147427;23;20417;-79
2021/01/12 03:34:15;;;;;;;1.30;1.20;;;7.60;99.90;;;;;;6154227;23;20538;-80
2021/01/12 03:36:53;;;;;;;1.83;1.60;;;7.50;99.90;;;;;;6148886;23;20418;-80
2021/01/12 03:39:26;;;;;;;1.63;1.50;;;7.90;99.90;;;;;;6153852;23;20391;-80
2021/01/12 03:41:57;;;;;;;1.13;1.03;;;8.00;99.90;;;;;;6176227;23;20437;-79
2021/01/12 03:44:41;;;;;;;1.43;1.30;;;7.90;99.90;;;;;;6152567;23;20449;-81
2021/01/12 03:47:28;;;;;;;1.20;1.10;;;7.90;99.90;;;;;;6153197;23;20423;-82
2021/01/12 03:50:12;;;;;;;1.60;1.50;;;7.80;99.90;;;;;;6154741;23;20441;-80
2021/01/12 03:52:42;;;;;;;1.40;1.30;;;7.80;99.90;;;;;;6153604;23;20518;-79
2021/01/12 03:55:19;;;;;;;1.23;1.13;;;7.80;99.90;;;;;;6152385;23;20487;-81
2021/01/12 03:57:57;;;;;;;;;;;;;;;;;;;;;
2021/01/12 04:00:46;;;;;;;2.33;1.30;;;7.90;99.90;;;;;;6154653;23;20411;-78
2021/01/12 04:03:48;;;;;;;1.70;1.47;;;7.90;99.90;;;;;;6156345;23;20538;-80
2021/01/12 04:06:32;;;;;;;1.40;1.30;;;8.00;99.90;;;;;;6153449;23;20908;-80
2021/01/12 04:09:06;;;;;;;2.40;1.60;;;7.90;99.90;;;;;;6166374;23;20433;-82
2021/01/12 04:11:48;;;;;;;1.70;1.43;;;7.80;99.90;;;;;;6154689;23;20762;-82
2021/01/12 04:17:35;;;;;;;1.67;1.40;;;7.80;99.90;;;;;;6153993;23;20426;-81
2021/01/12 04:20:14;;;;;;;1.40;1.30;;;7.70;99.90;;;;;;6154581;23;20422;-81
2021/01/12 04:22:53;;;;;;;1.20;1.10;;;7.60;99.90;;;;;;6174574;23;20430;-80
2021/01/12 04:25:45;;;;;;;1.40;1.30;;;7.60;99.90;;;;;;6152575;23;20494;-79
2021/01/12 04:28:33;;;;;;;1.30;1.20;;;7.50;99.90;;;;;;6152164;23;20439;-80
2021/01/12 04:31:25;;;;;;;2.10;1.20;;;7.60;99.90;;;;;;6151078;23;20453;-79
2021/01/12 04:34:07;;;;;;;1.93;1.40;;;7.40;99.90;;;;;;6151561;23;20423;-78
2021/01/12 04:37:47;;;;;;;2.00;1.20;;;7.50;99.90;;;;;;6134472;23;20403;-80
2021/01/12 04:40:43;;;;;;;1.80;1.37;;;7.60;99.90;;;;;;6150120;23;20415;-79
2021/01/12 04:47:07;;;;;;;1.53;1.43;;;7.60;99.90;;;;;;6151853;23;20476;-80
2021/01/12 04:53:46;;;;;;;1.27;1.20;;;7.60;99.90;;;;;;6029037;23;20438;-80
2021/01/12 04:56:48;;;;;;;1.70;1.60;;;7.60;99.90;;;;;;6033018;23;20544;-79
2021/01/12 04:59:58;;;;;;;2.00;1.80;;;7.70;99.90;;;;;;5976614;24;20424;-79
2021/01/12 05:03:15;;;;;;;2.50;1.90;;;7.60;99.90;;;;;;6025045;23;20446;-80
2021/01/12 05:06:07;;;;;;;1.67;1.57;;;7.60;99.90;;;;;;6030783;23;20501;-79
2021/01/12 05:08:54;;;;;;;2.40;1.97;;;7.60;99.90;;;;;;6033836;23;20426;-81
2021/01/12 05:11:58;;;;;;;;;;;;;;;;;;;;;
2021/01/12 05:15:01;;;;;;;2.00;1.90;;;7.50;99.90;;;;;;6033005;23;20434;-80
2021/01/12 05:18:10;;;;;;;;;;;;;;;;;;;;;
2021/01/12 05:21:25;;;;;;;3.07;2.30;;;7.70;99.90;;;;;;6090956;23;20414;-82
2021/01/12 05:24:21;;;;;;;2.23;2.13;;;7.70;99.90;;;;;;6137662;23;20435;-80
2021/01/12 05:27:14;;;;;;;2.17;1.97;;;7.60;99.90;;;;;;6131033;23;20495;-80
2021/01/12 05:30:23;;;;;;;2.37;1.83;;;7.70;99.90;;;;;;6153061;23;20414;-81
2021/01/12 05:33:03;;;;;;;;;;;;;;;;;;;;;
2021/01/12 05:35:41;;;;;;;4.70;1.83;;;7.90;99.90;;;;;;6162894;23;20421;-80
2021/01/12 05:38:59;;;;;;;1.70;1.60;;;7.80;99.90;;;;;;6170435;23;20367;-79
2021/01/12 05:41:51;;;;;;;2.00;1.23;;;7.80;99.90;;;;;;6170938;23;20394;-79
2021/01/12 05:44:37;;;;;;;0.60;0.60;;;7.70;99.90;;;;;;6171644;23;20446;-79
2021/01/12 05:47:16;;;;;;;1.10;1.00;;;7.80;99.90;;;;;;6174091;23;20395;-78
2021/01/12 05:49:55;;;;;;;0.70;0.70;;;7.70;99.90;;;;;;6173700;23;20398;-79
2021/01/12 05:52:25;;;;;;;0.77;0.70;;;7.60;99.90;;;;;;6174340;23;20422;-78
2021/01/12 05:55:05;;;;;;;0.50;0.50;;;7.60;99.90;;;;;;6174256;23;20489;-79
2021/01/12 05:58:33;;;;;;;1.27;0.60;;;7.70;99.90;;;;;;6172150;23;20437;-79
2021/01/12 06:01:29;;;;;;;0.60;0.40;;;7.70;99.90;;;;;;6148434;23;20734;-78
2021/01/12 06:04:14;;;;;;;0.60;0.60;;;7.70;99.90;;;;;;6149309;23;20431;-80
2021/01/12 06:06:56;;;;;;;0.77;0.57;;;7.80;99.90;;;;;;6149518;23;20862;-79
2021/01/12 06:10:08;;;;;;;7.90;0.80;;;7.70;99.90;;;;;;6171022;23;20553;-79
2021/01/12 06:13:13;;;;;;;1.77;0.70;;;7.70;99.90;;;;;;6164671;23;20384;-80
2021/01/12 06:16:18;;;;;;;1.43;0.60;;;7.80;99.90;;;;;;6150545;23;20474;-79
2021/01/12 06:19:19;;;;;;;0.70;0.70;;;7.80;99.90;;;;;;6103812;23;20453;-78
2021/01/12 06:22:00;;;;;;;0.50;0.40;;;8.00;99.90;;;;;;6160386;23;20451;-77
2021/01/12 06:24:38;;;;;;;0.90;0.60;;;8.00;99.90;;;;;;6173056;23;20427;-79
2021/01/12 06:27:28;;;;;;;1.03;0.57;;;7.90;99.90;;;;;;6173509;23;20402;-79
2021/01/12 06:30:11;;;;;;;0.50;0.47;;;7.80;99.90;;;;;;6171666;23;20426;-79
2021/01/12 06:32:40;;;;;;;1.17;0.43;;;7.90;99.90;;;;;;6168524;23;20469;-79
2021/01/12 06:35:21;;;;;;;0.60;0.60;;;7.80;99.90;;;;;;6159222;23;20405;-80
2021/01/12 06:37:52;;;;;;;0.60;0.40;;;7.80;99.90;;;;;;6178690;23;20509;-79
2021/01/12 06:40:27;;;;;;;1.53;0.50;;;7.80;99.90;;;;;;6153625;23;20427;-80
2021/01/12 06:43:07;;;;;;;1.43;0.60;;;7.90;99.90;;;;;;6154471;23;20521;-81
2021/01/12 06:45:39;;;;;;;1.30;0.50;;;7.90;99.90;;;;;;6168642;23;20437;-82
2021/01/12 06:48:22;;;;;;;1.50;0.60;;;7.90;99.90;;;;;;6154400;23;20763;-79
2021/01/12 06:51:37;;;;;;;0.60;0.53;;;7.90;99.90;;;;;;6152779;23;20473;-80
2021/01/12 06:54:21;;;;;;;0.67;0.40;;;8.00;99.90;;;;;;6152489;23;20446;-80
2021/01/12 06:57:06;;;;;;;0.70;0.50;;;8.00;99.90;;;;;;6152955;23;20418;-82
2021/01/12 06:59:56;;;;;;;0.60;0.60;;;8.10;99.90;;;;;;6151541;23;20453;-82
2021/01/12 07:02:54;;;;;;;0.63;0.60;;;8.00;99.90;;;;;;6151904;23;20816;-79
2021/01/12 07:05:44;;;;;;;0.73;0.63;;;8.10;99.90;;;;;;6150440;23;20415;-81
2021/01/12 07:08:57;;;;;;;0.50;0.50;;;7.90;99.90;;;;;;6176478;23;20418;-80
2021/01/12 07:11:35;;;;;;;0.60;0.50;;;7.90;99.90;;;;;;6156249;23;20411;-82
2021/01/12 07:14:23;;;;;;;0.50;0.50;;;8.10;99.90;;;;;;6153497;23;20918;-80
2021/01/12 07:17:16;;;;;;;0.63;0.53;;;8.30;99.90;;;;;;6159930;23;20411;-79
2021/01/12 07:20:10;;;;;;;0.93;0.87;;;8.30;99.90;;;;;;6158809;23;20450;-81
2021/01/12 07:23:06;;;;;;;0.70;0.70;;;8.30;99.90;;;;;;6160656;23;20526;-78
2021/01/12 07:25:54;;;;;;;1.00;0.70;;;8.20;99.90;;;;;;6163286;23;20402;-79
2021/01/12 07:28:22;;;;;;;0.50;0.40;;;8.10;99.90;;;;;;6160671;23;20503;-81
2021/01/12 07:31:00;;;;;;;0.60;0.60;;;8.00;99.90;;;;;;6155598;23;20460;-80
2021/01/12 07:33:49;;;;;;;1.57;0.70;;;8.00;99.90;;;;;;6153574;23;20430;-80
2021/01/12 07:36:34;;;;;;;1.03;0.70;;;8.00;99.90;;;;;;6155279;23;20411;-80
2021/01/12 07:39:17;;;;;;;0.57;0.50;;;7.90;99.90;;;;;;6152930;23;20423;-81
2021/01/12 07:41:51;;;;;;;0.93;0.67;;;7.90;99.90;;;;;;6153524;23;20399;-80
2021/01/12 07:44:19;;;;;;;0.60;0.60;;;8.00;99.90;;;;;;6152951;23;20497;-80
2021/01/12 07:46:48;;;;;;;0.80;0.63;;;8.10;99.90;;;;;;6150675;23;20433;-80
2021/01/12 07:49:18;;;;;;;0.50;0.50;;;8.10;99.90;;;;;;6152834;23;20421;-78
2021/01/12 07:51:47;;;;;;;0.87;0.70;;;8.10;99.90;;;;;;6154084;23;20445;-77
2021/01/12 07:54:35;;;;;;;0.60;0.60;;;8.00;99.90;;;;;;6154075;23;20427;-78
2021/01/12 07:57:09;;;;;;;0.50;0.50;;;8.00;99.90;;;;;;6152511;23;20524;-79
2021/01/12 07:59:39;;;;;;;0.60;0.60;;;8.10;99.90;;;;;;6153043;23;20458;-80
2021/01/12 08:02:08;;;;;;;0.73;0.73;;;8.10;99.90;;;;;;6154338;23;20529;-79
2021/01/12 08:04:42;;;;;;;0.60;0.60;;;8.30;99.90;;;;;;6153708;23;20765;-81
2021/01/12 08:07:27;;;;;;;4.63;0.70;;;8.40;99.90;;;;;;6154311;23;20442;-81
2021/01/12 08:10:16;;;;;;;1.07;0.50;;;8.40;99.90;;;;;;6154312;23;20401;-80
2021/01/12 08:13:12;;;;;;;0.53;0.53;;;8.30;99.90;;;;;;6155017;23;20399;-79
2021/01/12 08:15:48;;;;;;;0.53;0.50;;;8.30;99.90;;;;;;6153994;23;20414;-79
2021/01/12 08:18:24;;;;;;;0.50;0.50;;;8.20;99.90;;;;;;6155576;23;20750;-79
2021/01/12 08:21:11;;;;;;;1.00;0.70;;;8.30;99.90;;;;;;6153932;23;20394;-80
2021/01/12 08:23:40;;;;;;;0.80;0.80;;;8.60;99.90;;;;;;6155099;23;20446;-80
2021/01/12 08:26:13;;;;;;;1.20;0.90;;;8.30;99.90;;;;;;6167132;23;20413;-79
2021/01/12 08:28:52;;;;;;;1.13;0.60;;;8.40;99.90;;;;;;6172981;23;20450;-80
2021/01/12 08:31:31;;;;;;;0.50;0.50;;;8.30;99.90;;;;;;6171621;23;20407;-79
2021/01/12 08:37:29;;;;;;;1.83;0.60;;;8.50;99.90;;;;;;6131212;23;20485;-80
2021/01/12 08:40:35;;;;;;;0.97;0.73;;;8.30;99.90;;;;;;6130423;23;20499;-80
2021/01/12 08:43:15;;;;;;;1.07;0.50;;;8.30;99.90;;;;;;6157979;23;20539;-80
2021/01/12 08:45:44;;;;;;;0.50;0.50;;;8.30;99.90;;;;;;6173343;23;20407;-80
2021/01/12 08:48:15;;;;;;;0.70;0.60;;;8.50;99.90;;;;;;6157793;23;20419;-81
2021/01/12 08:50:43;;;;;;;0.80;0.73;;;8.40;99.90;;;;;;6157622;23;20439;-79
2021/01/12 08:53:09;;;;;;;0.57;0.57;;;8.50;99.90;;;;;;6154788;23;20418;-82
2021/01/12 08:55:36;;;;;;;0.80;0.60;;;8.50;99.90;;;;;;6155031;23;20403;-79
2021/01/12 08:58:06;;;;;;;1.50;1.00;;;8.40;99.90;;;;;;6151268;23;21266;-81
2021/01/12 09:00:37;;;;;;;0.70;0.70;;;8.50;99.90;;;;;;6158499;23;20973;-81
2021/01/12 09:03:06;;;;;;;0.70;0.70;;;8.40;99.90;;;;;;6153642;23;20445;-81
2021/01/12 09:05:44;;;;;;;1.37;0.63;;;8.60;99.90;;;;;;6154126;23;20410;-81
2021/01/12 09:08:30;;;;;;;1.47;0.80;;;8.50;99.90;;;;;;6152806;23;20461;-81
2021/01/12 09:11:05;;;;;;;1.00;0.70;;;8.50;99.90;;;;;;6152972;23;20409;-81
2021/01/12 09:14:22;;;;;;;2.50;1.03;;;8.50;99.90;;;;;;6151661;23;20509;-80
2021/01/12 09:17:06;;;;;;;1.13;0.90;;;8.40;99.90;;;;;;6154278;23;20419;-80
2021/01/12 09:22:44;;;;;;;2.70;2.60;;;8.40;99.90;;;;;;6151529;23;20446;-80
2021/01/12 09:25:24;;;;;;;3.00;1.83;;;8.50;99.90;;;;;;6168153;23;20428;-79
2021/01/12 09:28:22;;;;;;;2.63;2.03;;;8.50;99.90;;;;;;6169891;23;20434;-77
2021/01/12 09:31:06;;;;;;;3.63;2.00;;;8.60;99.90;;;;;;6158197;23;20375;-80
2021/01/12 09:34:05;;;;;;;;;;;;;;;;;;;;;
2021/01/12 09:37:22;;;;;;;3.67;2.43;;;8.60;99.90;;;;;;6154399;23;20402;-81
2021/01/12 09:40:17;;;;;;;3.33;2.33;;;8.50;99.90;;;;;;6176899;23;20415;-79
2021/01/12 09:43:18;;;;;;;4.90;3.07;;;8.60;99.90;;;;;;6154105;23;20430;-79
2021/01/12 09:46:13;;;;;;;4.90;2.80;;;8.50;99.90;;;;;;6094120;23;20416;-79
2021/01/12 09:49:01;;;;;;;;;;;;;;;;;;;;;
2021/01/12 09:51:53;;;;;;;3.33;2.17;;;8.50;99.90;;;;;;6153210;23;20382;-80
2021/01/12 09:54:32;;;;;;;3.10;2.33;;;8.50;99.90;;;;;;6153100;23;20969;-79
2021/01/12 09:56:58;;;;;;;4.23;2.43;;;8.60;99.90;;;;;;6153637;23;20421;-79
2021/01/12 09:59:28;;;;;;;3.13;1.90;;;8.60;99.90;;;;;;6153116;23;20772;-80
2021/01/12 10:02:01;;;;;;;2.83;1.70;;;8.50;99.90;;;;;;6152718;23;20393;-81
2021/01/12 10:04:36;;;;;;;1.80;1.70;;;8.60;99.90;;;;;;6152900;23;20502;-81
2021/01/12 10:07:17;;;;;;;2.30;1.20;;;8.60;99.90;;;;;;6151680;23;20418;-81
2021/01/12 10:09:48;;;;;;;1.60;1.00;;;8.60;99.90;;;;;;6150790;23;20577;-80
2021/01/12 10:12:14;;;;;;;2.97;1.60;;;8.50;99.90;;;;;;6151637;23;20521;-80
2021/01/12 10:14:42;;;;;;;1.43;1.10;;;8.60;99.90;;;;;;6176130;23;20431;-79
2021/01/12 10:17:12;;;;;;;1.33;1.17;;;8.60;99.90;;;;;;6150705;23;20487;-79
2021/01/12 10:19:38;;;;;;;1.63;1.40;;;8.60;99.90;;;;;;6151327;23;20522;-80
2021/01/12 10:22:12;;;;;;;2.93;1.50;;;8.60;99.90;;;;;;6162430;23;20448;-80
2021/01/12 10:24:59;;;;;;;1.50;1.40;;;8.70;99.90;;;;;;6156908;23;20939;-78
2021/01/12 10:27:45;;;;;;;1.50;1.40;;;8.70;99.90;;;;;;6153973;23;20439;-80
2021/01/12 10:30:15;;;;;;;1.60;1.50;;;8.70;99.90;;;;;;6154356;23;20407;-82
2021/01/12 10:32:59;;;;;;;2.40;1.47;;;8.70;99.90;;;;;;6152966;23;20762;-80
2021/01/12 10:35:42;;;;;;;2.20;1.70;;;8.70;99.90;;;;;;6155788;23;20430;-80
2021/01/12 10:38:18;;;;;;;1.20;1.10;;;8.70;99.90;;;;;;6152010;23;20411;-80
2021/01/12 10:40:47;;;;;;;2.97;1.67;;;8.70;99.90;;;;;;6153585;23;20395;-79
2021/01/12 10:43:22;;;;;;;1.73;1.37;;;8.70;99.90;;;;;;6152743;23;20458;-82
2021/01/12 10:46:14;;;;;;;2.07;1.73;;;8.70;99.90;;;;;;6154856;23;20448;-82
2021/01/12 10:48:40;;;;;;;1.77;1.67;;;8.80;99.90;;;;;;6153750;23;20425;-80
2021/01/12 10:51:17;;;;;;;2.20;1.80;;;8.80;99.90;;;;;;6158266;23;20478;-80
2021/01/12 10:53:53;;;;;;;3.90;1.80;;;8.80;99.90;;;;;;6163957;23;20448;-78
2021/01/12 10:56:20;;;;;;;1.50;1.37;;;8.80;99.90;;;;;;6161312;23;20442;-79
2021/01/12 10:58:47;;;;;;;2.37;1.60;;;8.80;99.90;;;;;;6159486;23;20450;-81
2021/01/12 11:01:15;;;;;;;1.27;1.13;;;8.80;99.90;;;;;;6159433;23;20411;-79
2021/01/12 11:03:45;;;;;;;2.00;1.20;;;8.70;99.90;;;;;;6167473;23;20466;-82
2021/01/12 11:06:19;;;;;;;3.47;1.30;;;8.80;99.90;;;;;;6166858;23;20414;-79
2021/01/12 11:08:52;;;;;;;1.40;1.30;;;8.80;99.90;;;;;;6166063;23;20435;-79
2021/01/12 11:11:42;;;;;;;1.27;1.10;;;8.80;99.90;;;;;;6162619;23;20421;-79
2021/01/12 11:14:37;;;;;;;2.10;1.13;;;8.90;99.90;;;;;;6161688;23;20453;-79
2021/01/12 11:17:14;;;;;;;1.80;1.30;;;8.90;99.90;;;;;;6167275;23;20399;-79
2021/01/12 11:19:48;;;;;;;1.30;1.20;;;8.90;99.90;;;;;;6159640;23;20765;-80
2021/01/12 11:22:26;;;;;;;1.20;1.10;;;9.00;99.90;;;;;;6160832;23;20470;-80
2021/01/12 11:25:06;;;;;;;1.80;1.70;;;9.00;99.90;;;;;;6166096;23;20427;-81
2021/01/12 11:27:47;;;;;;;2.53;1.57;;;9.10;99.90;;;;;;6165498;23;20435;-80
2021/01/12 11:30:17;;;;;;;2.37;2.17;;;9.20;99.90;;;;;;6165522;23;20410;-81
2021/01/12 11:32:44;;;;;;;2.07;1.90;;;9.20;99.90;;;;;;6151681;23;20418;-79
2021/01/12 11:35:14;;;;;;;1.57;1.40;;;9.20;99.90;;;;;;6152021;23;20426;-79
2021/01/12 11:37:43;;;;;;;2.40;1.93;;;9.20;99.90;;;;;;6153458;23;20425;-80
2021/01/12 11:40:10;;;;;;;2.37;1.57;;;9.20;99.90;;;;;;6153824;23;20486;-80
2021/01/12 11:42:36;;;;;;;1.67;1.57;;;9.20;99.90;;;;;;6153619;23;20634;-81
2021/01/12 11:45:04;;;;;;;1.13;1.03;;;9.10;99.90;;;;;;6152892;23;20452;-80
2021/01/12 11:47:34;;;;;;;1.60;1.50;;;9.10;99.90;;;;;;6153018;23;20906;-81
2021/01/12 11:50:00;;;;;;;1.63;1.40;;;9.00;99.90;;;;;;6157027;23;20418;-79
2021/01/12 11:52:26;;;;;;;1.43;1.33;;;8.90;99.90;;;;;;6154899;23;20419;-79
2021/01/12 11:54:55;;;;;;;2.67;1.53;;;9.00;99.90;;;;;;6154041;23;20431;-77
2021/01/12 11:57:21;;;;;;;1.70;1.60;;;8.90;99.90;;;;;;6154507;23;20423;-79
2021/01/12 11:59:48;;;;;;;1.90;1.50;;;8.90;99.90;;;;;;6172716;23;20421;-80
2021/01/12 12:02:14;;;;;;;1.77;1.37;;;9.00;99.90;;;;;;6162022;23;20423;-79
2021/01/12 12:04:41;;;;;;;2.80;1.80;;;9.00;99.90;;;;;;6148993;23;20434;-79
2021/01/12 12:07:18;;;;;;;1.60;1.50;;;8.90;99.90;;;;;;6151912;23;20425;-80
2021/01/12 12:09:51;;;;;;;1.03;1.03;;;8.90;99.90;;;;;;6151641;23;20417;-80
2021/01/12 12:12:22;;;;;;;1.50;1.40;;;8.90;99.90;;;;;;6153390;23;20403;-82
2021/01/12 12:15:03;;;;;;;2.07;1.87;;;8.90;99.90;;;;;;6153073;23;20902;-79
2021/01/12 12:17:38;;;;;;;1.60;1.47;;;8.90;99.90;;;;;;6156747;23;20421;-78
2021/01/12 12:20:14;;;;;;;1.63;1.53;;;8.90;99.90;;;;;;6157323;23;20406;-81
2021/01/12 12:22:48;;;;;;;2.33;1.47;;;9.00;99.90;;;;;;6154466;23;20449;-81
2021/01/12 12:25:20;;;;;;;4.03;1.63;;;9.00;99.90;;;;;;6156475;23;20402;-80
2021/01/12 12:27:49;;;;;;;1.00;0.80;;;8.80;99.90;;;;;;6158499;23;20442;-79
2021/01/12 12:30:17;;;;;;;1.20;1.10;;;8.70;99.90;;;;;;6155889;23;20501;-81
2021/01/12 12:32:43;;;;;;;1.23;1.20;;;8.70;99.90;;;;;;6153979;23;20453;-80
2021/01/12 12:35:13;;;;;;;2.00;1.47;;;8.80;99.90;;;;;;6151561;23;20431;-81
2021/01/12 12:37:42;;;;;;;1.70;1.20;;;8.80;99.90;;;;;;6151305;23;20522;-79
2021/01/12 12:40:13;;;;;;;1.00;1.00;;;8.70;99.90;;;;;;6162481;23;20417;-82
2021/01/12 12:42:39;;;;;;;2.20;1.00;;;8.70;99.90;;;;;;6159748;23;20510;-79
2021/01/12 12:45:06;;;;;;;1.60;1.03;;;8.70;99.90;;;;;;6158728;23;20461;-79
2021/01/12 12:47:35;;;;;;;0.93;0.90;;;8.70;99.90;;;;;;6159441;23;20411;-81
2021/01/12 12:50:03;;;;;;;1.20;1.00;;;8.80;99.90;;;;;;6184672;23;20635;-80
2021/01/12 12:52:32;;;;;;;1.80;1.67;;;8.80;99.90;;;;;;6178266;23;20931;-81
2021/01/12 12:54:59;;;;;;;1.30;0.80;;;8.80;99.90;;;;;;6151957;23;20965;-83
2021/01/12 12:57:26;;;;;;;1.33;0.73;;;8.70;99.90;;;;;;6152626;23;20429;-80
2021/01/12 13:00:04;;;;;;;0.80;0.80;;;8.70;99.90;;;;;;6154178;23;20444;-82
2021/01/12 13:02:31;;;;;;;0.67;0.60;;;8.80;99.90;;;;;;6153510;23;20701;-82
2021/01/12 13:05:01;;;;;;;1.60;1.00;;;8.80;99.90;;;;;;6155251;23;20474;-83
2021/01/12 13:07:28;;;;;;;1.20;1.10;;;8.80;99.90;;;;;;6152132;23;20415;-84
2021/01/12 13:10:05;;;;;;;0.80;0.80;;;8.70;99.90;;;;;;6183038;23;20454;-81
2021/01/12 13:12:37;;;;;;;1.73;1.10;;;8.80;99.90;;;;;;6154981;23;20415;-82
2021/01/12 13:15:11;;;;;;;0.60;0.60;;;8.70;99.90;;;;;;6156974;23;20826;-82
2021/01/12 13:17:48;;;;;;;4.77;1.00;;;8.80;99.90;;;;;;6138876;23;20418;-80
2021/01/12 13:20:22;;;;;;;2.40;1.17;;;8.80;99.90;;;;;;6156680;23;20447;-81
2021/01/12 13:22:52;;;;;;;1.27;0.70;;;8.80;99.90;;;;;;6163458;23;20469;-82
2021/01/12 13:25:43;;;;;;;2.40;0.97;;;8.70;99.90;;;;;;6158656;23;20395;-81
2021/01/12 13:28:43;;;;;;;1.47;0.90;;;8.80;99.90;;;;;;6171139;23;20411;-84
2021/01/12 13:31:21;;;;;;;1.37;0.97;;;8.70;99.90;;;;;;6171324;23;20422;-80
2021/01/12 13:33:55;;;;;;;1.43;1.00;;;8.60;99.90;;;;;;6170064;23;20441;-85
2021/01/12 13:36:32;;;;;;;1.33;0.90;;;8.60;99.90;;;;;;6158150;23;20430;-80
2021/01/12 13:39:14;;;;;;;2.30;1.40;;;8.70;99.90;;;;;;6157745;23;20458;-81
2021/01/12 13:41:53;;;;;;;1.37;1.03;;;8.70;99.90;;;;;;6158662;23;20395;-81
2021/01/12 13:44:23;;;;;;;1.80;1.20;;;8.60;99.90;;;;;;6158784;23;20977;-80
2021/01/12 13:46:50;;;;;;;1.33;0.87;;;8.70;99.90;;;;;;6159244;23;20411;-81
2021/01/12 13:49:32;;;;;;;1.83;0.73;;;8.80;99.90;;;;;;6160491;23;20456;-82
2021/01/12 13:52:02;;;;;;;1.50;0.67;;;8.60;99.90;;;;;;6159811;23;20395;-81
2021/01/12 13:54:32;;;;;;;1.83;1.10;;;8.50;99.90;;;;;;6158112;23;20453;-81
2021/01/12 13:57:13;;;;;;;0.67;0.60;;;8.30;99.90;;;;;;6156958;23;20426;-81
2021/01/12 13:59:45;;;;;;;0.50;0.50;;;8.20;99.90;;;;;;6157074;23;20522;-80
2021/01/12 14:02:40;;;;;;;;;;;;;;;;;;;;;
2021/01/12 14:10:54;;;;;;;0.40;0.40;;;8.20;99.90;;;;;;6146134;23;20494;-83
2021/01/12 14:14:36;;;;;;;;;;;;;;;;;;;;;
2021/01/12 14:18:02;;;;;;;2.30;0.70;;;8.30;99.90;;;;;;5997177;23;20396;-83
2021/01/12 14:21:50;;;;;;;1.90;0.90;;;8.30;99.90;;;;;;5955358;23;20412;-83
2021/01/12 14:45:33;;;;;;;1.10;0.93;;;8.10;99.90;;;;;;6175403;23;20501;-83
2021/01/12 15:07:57;;;;;;;1.80;0.77;;;7.60;99.90;;;;;;6125957;23;20410;-81
2021/01/12 15:10:38;;;;;;;4.77;1.00;;;7.60;99.90;;;;;;6131020;23;20400;-85
2021/01/12 15:39:31;;;;;;;;;;;;;;;;;;;;;
2021/01/12 15:45:34;;;;;;;4.70;1.20;;;7.50;99.90;;;;;;6116280;23;20685;-83
2021/01/12 15:48:24;;;;;;;2.10;1.00;;;7.40;99.90;;;;;;6155642;23;20422;-83
2021/01/12 15:50:54;;;;;;;3.20;1.40;;;7.30;99.90;;;;;;6127688;23;20411;-83
2021/01/12 15:53:33;;;;;;;6.20;1.13;;;7.30;99.90;;;;;;6124832;23;20506;-84
2021/01/12 15:56:06;;;;;;;2.50;1.33;;;7.20;99.90;;;;;;6127733;23;20400;-81
2021/01/12 15:58:48;;;;;;;2.80;1.10;;;7.20;99.90;;;;;;6122974;23;20455;-83
2021/01/12 16:01:31;;;;;;;7.10;2.47;;;7.10;99.90;;;;;;6125362;23;20534;-83
2021/01/12 16:04:07;;;;;;;3.70;2.13;;;7.10;99.90;;;;;;6125195;23;20447;-83
2021/01/12 16:06:33;;;;;;;5.60;2.80;;;7.10;99.90;;;;;;6125463;23;20425;-82